Time;durP1;ratioP1;P1;durP2;ratioP2;P2;SDS_P1;SDS_P2;PMS_P1;PMS_P2;Temp;Humidity;BMP_temperature;BMP_pressure;BME280_temperature;BME280_humidity;BME280_pressure;Samples;Min_cycle;Max_cycle;Signal;HPM_P1;HPM_P2
2021/09/16 00:01:30;;;;;;;1.45;0.60;;;16.70;75.30;;;;;;5070587;28;20032;-77
2021/09/16 00:03:56;;;;;;;0.80;0.60;;;16.70;75.20;;;;;;5070337;28;20044;-76
2021/09/16 00:06:21;;;;;;;1.85;0.75;;;16.70;75.30;;;;;;5069520;28;20030;-76
2021/09/16 00:08:47;;;;;;;0.90;0.50;;;16.60;75.30;;;;;;5070501;28;20021;-77
2021/09/16 00:11:13;;;;;;;0.68;0.55;;;16.60;75.40;;;;;;5069943;28;21146;-76
2021/09/16 00:13:38;;;;;;;0.80;0.60;;;16.60;75.50;;;;;;5070203;28;20502;-77
2021/09/16 00:16:04;;;;;;;1.10;0.50;;;16.50;75.50;;;;;;5069222;28;20108;-76
2021/09/16 00:18:30;;;;;;;2.00;0.57;;;16.50;75.60;;;;;;5069527;28;20025;-76
2021/09/16 00:20:56;;;;;;;1.58;0.60;;;16.40;75.70;;;;;;5069893;28;20052;-77
2021/09/16 00:23:21;;;;;;;3.05;0.80;;;16.40;75.90;;;;;;5059919;28;20118;-79
2021/09/16 00:25:47;;;;;;;0.50;0.50;;;16.30;75.90;;;;;;5066235;28;20077;-78
2021/09/16 00:28:13;;;;;;;1.70;0.60;;;16.30;76.00;;;;;;5069621;28;20025;-78
2021/09/16 00:30:38;;;;;;;1.83;0.65;;;16.30;76.10;;;;;;5067671;28;20025;-78
2021/09/16 00:33:04;;;;;;;1.67;0.60;;;16.30;76.20;;;;;;5021503;28;1041706;-77
2021/09/16 00:35:29;;;;;;;2.47;0.73;;;16.20;76.20;;;;;;5070193;28;20360;-77
2021/09/16 00:37:55;;;;;;;1.90;0.70;;;16.30;76.30;;;;;;5070271;28;20024;-77
2021/09/16 00:40:21;;;;;;;2.55;0.80;;;16.20;76.30;;;;;;5069357;28;20043;-77
2021/09/16 00:42:46;;;;;;;1.30;0.70;;;16.20;76.40;;;;;;5068896;28;20033;-77
2021/09/16 00:45:12;;;;;;;1.50;0.70;;;16.20;76.50;;;;;;5070304;28;20036;-77
2021/09/16 00:47:47;;;;;;;2.28;0.95;;;16.20;76.60;;;;;;5061809;28;20033;-77
2021/09/16 00:50:15;;;;;;;1.45;0.80;;;16.10;76.70;;;;;;5056981;28;20033;-78
2021/09/16 00:52:41;;;;;;;0.63;0.63;;;16.10;76.80;;;;;;5069967;28;20020;-78
2021/09/16 00:55:08;;;;;;;0.95;0.57;;;16.10;76.80;;;;;;5069863;28;20035;-79
2021/09/16 00:57:34;;;;;;;1.17;0.50;;;16.10;76.90;;;;;;5069491;28;20036;-77
2021/09/16 01:00:02;;;;;;;0.80;0.70;;;16.10;77.00;;;;;;5070612;28;20429;-77
2021/09/16 01:02:27;;;;;;;1.15;0.65;;;16.10;77.00;;;;;;5069384;28;20489;-76
2021/09/16 01:04:53;;;;;;;0.95;0.70;;;16.10;77.10;;;;;;5069496;28;20025;-76
2021/09/16 01:07:19;;;;;;;1.02;0.60;;;16.10;77.20;;;;;;5083425;28;20020;-77
2021/09/16 01:09:44;;;;;;;3.55;0.70;;;16.10;77.20;;;;;;5079662;28;20032;-77
2021/09/16 01:12:10;;;;;;;1.05;0.60;;;16.10;77.10;;;;;;5070270;28;20570;-77
2021/09/16 01:14:36;;;;;;;1.25;0.75;;;16.10;77.10;;;;;;5068659;28;20031;-78
2021/09/16 01:17:03;;;;;;;1.60;0.50;;;16.10;77.10;;;;;;5069611;28;20065;-77
2021/09/16 01:19:29;;;;;;;1.15;0.60;;;16.20;77.00;;;;;;5064372;28;20186;-78
2021/09/16 01:21:55;;;;;;;1.75;0.65;;;16.20;77.10;;;;;;5063206;28;20439;-78
2021/09/16 01:24:20;;;;;;;1.02;0.70;;;16.10;77.00;;;;;;5069426;28;20352;-77
2021/09/16 01:26:47;;;;;;;2.78;0.70;;;16.10;77.10;;;;;;5069457;28;20041;-78
2021/09/16 01:29:14;;;;;;;1.25;0.60;;;16.00;77.10;;;;;;5070333;28;20020;-79
2021/09/16 01:31:43;;;;;;;0.82;0.40;;;16.00;77.10;;;;;;5070110;28;20023;-78
2021/09/16 01:34:10;;;;;;;0.98;0.50;;;16.00;77.20;;;;;;5070024;28;20029;-79
2021/09/16 01:36:37;;;;;;;1.33;0.60;;;16.00;77.40;;;;;;5069741;28;20364;-78
2021/09/16 01:39:05;;;;;;;1.70;0.60;;;16.00;77.40;;;;;;5070062;28;20382;-78
2021/09/16 01:41:31;;;;;;;0.63;0.57;;;16.00;77.50;;;;;;5071380;28;20487;-77
2021/09/16 01:43:56;;;;;;;3.30;0.70;;;16.00;77.50;;;;;;5073515;28;20032;-78
2021/09/16 01:46:22;;;;;;;2.75;0.70;;;16.00;77.60;;;;;;5073584;28;20028;-77
2021/09/16 01:48:48;;;;;;;1.92;0.60;;;15.90;77.80;;;;;;5068599;28;20443;-77
2021/09/16 01:51:13;;;;;;;0.65;0.40;;;15.90;77.90;;;;;;5064420;28;20043;-77
2021/09/16 01:53:39;;;;;;;1.20;0.70;;;15.90;77.90;;;;;;5067258;28;20024;-77
2021/09/16 01:56:05;;;;;;;3.00;0.80;;;15.90;78.00;;;;;;5069170;28;20032;-78
2021/09/16 01:58:30;;;;;;;1.40;0.70;;;15.80;78.00;;;;;;5073005;28;20031;-78
2021/09/16 02:00:57;;;;;;;1.75;0.55;;;15.80;78.10;;;;;;5072482;28;20131;-77
2021/09/16 02:03:22;;;;;;;1.20;0.60;;;15.80;78.20;;;;;;5060880;28;20120;-78
2021/09/16 02:05:48;;;;;;;2.17;0.80;;;15.80;78.20;;;;;;5071936;28;20103;-77
2021/09/16 02:08:14;;;;;;;1.98;0.80;;;15.80;78.30;;;;;;5069402;28;20545;-78
2021/09/16 02:10:39;;;;;;;1.63;0.70;;;15.80;78.40;;;;;;5071621;28;20028;-78
2021/09/16 02:13:05;;;;;;;1.58;0.82;;;15.70;78.40;;;;;;5072468;28;20024;-78
2021/09/16 02:15:30;;;;;;;1.35;0.82;;;15.70;78.50;;;;;;5072762;28;20109;-78
2021/09/16 02:17:56;;;;;;;1.08;0.70;;;15.70;78.50;;;;;;5072651;28;20021;-78
2021/09/16 02:20:21;;;;;;;1.23;0.77;;;15.70;78.60;;;;;;5072624;28;20048;-78
2021/09/16 02:22:47;;;;;;;1.63;0.90;;;15.70;78.60;;;;;;5072698;28;20031;-78
2021/09/16 02:25:13;;;;;;;1.10;0.82;;;15.70;78.70;;;;;;5072176;28;20642;-78
2021/09/16 02:27:38;;;;;;;2.53;0.90;;;15.80;78.70;;;;;;5072518;28;20478;-78
2021/09/16 02:30:05;;;;;;;1.00;0.70;;;15.80;78.70;;;;;;5072040;28;20028;-77
2021/09/16 02:32:31;;;;;;;2.70;0.80;;;15.80;78.60;;;;;;5071183;28;20450;-77
2021/09/16 02:34:56;;;;;;;1.27;0.70;;;15.90;78.60;;;;;;5073122;28;20045;-77
2021/09/16 02:37:23;;;;;;;2.58;0.90;;;15.90;78.50;;;;;;5071681;28;20146;-77
2021/09/16 02:39:48;;;;;;;1.88;0.82;;;15.90;78.50;;;;;;5072538;28;20558;-77
2021/09/16 02:42:14;;;;;;;2.35;1.10;;;15.90;78.50;;;;;;5072530;28;20035;-77
2021/09/16 02:44:40;;;;;;;1.70;1.05;;;15.90;78.40;;;;;;5072120;28;20020;-77
2021/09/16 02:47:05;;;;;;;3.22;1.10;;;15.90;78.40;;;;;;5072256;28;20043;-77
2021/09/16 02:49:31;;;;;;;1.42;0.80;;;15.90;78.60;;;;;;5072186;28;20020;-77
2021/09/16 02:51:56;;;;;;;1.75;0.90;;;15.90;78.60;;;;;;5071830;28;20028;-78
2021/09/16 02:54:22;;;;;;;1.45;0.80;;;15.90;78.60;;;;;;5071884;28;20008;-78
2021/09/16 02:56:49;;;;;;;1.10;0.75;;;15.90;78.50;;;;;;5071817;28;20036;-78
2021/09/16 02:59:14;;;;;;;1.98;0.70;;;16.00;78.50;;;;;;5070588;28;20073;-78
2021/09/16 03:01:40;;;;;;;3.03;1.00;;;16.00;78.50;;;;;;5072040;28;20431;-79
2021/09/16 03:04:05;;;;;;;2.05;0.90;;;16.00;78.60;;;;;;5072076;28;20025;-79
2021/09/16 03:06:31;;;;;;;1.25;0.80;;;16.00;78.50;;;;;;5071593;28;20020;-78
2021/09/16 03:08:56;;;;;;;3.40;0.98;;;16.00;78.40;;;;;;5072107;28;20033;-77
2021/09/16 03:11:22;;;;;;;0.75;0.68;;;16.10;78.50;;;;;;5071715;28;20107;-79
2021/09/16 03:13:47;;;;;;;1.60;0.70;;;16.10;78.40;;;;;;5072299;28;20147;-79
2021/09/16 03:16:13;;;;;;;0.88;0.70;;;16.10;78.40;;;;;;5071077;28;20034;-78
2021/09/16 03:18:39;;;;;;;1.52;0.70;;;16.10;78.30;;;;;;5072255;28;20033;-77
2021/09/16 03:21:04;;;;;;;4.10;0.90;;;16.10;78.40;;;;;;5071755;28;20445;-78
2021/09/16 03:23:30;;;;;;;1.42;0.98;;;16.10;78.50;;;;;;5071797;28;20082;-78
2021/09/16 03:25:55;;;;;;;1.70;0.88;;;16.10;78.50;;;;;;5071044;28;20052;-76
2021/09/16 03:28:21;;;;;;;0.98;0.60;;;16.00;78.70;;;;;;5070805;28;20024;-77
2021/09/16 03:30:46;;;;;;;0.68;0.50;;;16.10;78.80;;;;;;5071934;28;20066;-77
2021/09/16 03:33:12;;;;;;;0.68;0.50;;;16.10;78.80;;;;;;5071213;28;20139;-76
2021/09/16 03:35:38;;;;;;;2.03;0.68;;;16.10;78.70;;;;;;5071305;28;20028;-77
2021/09/16 03:38:03;;;;;;;1.20;0.75;;;16.10;78.90;;;;;;5070995;28;20549;-77
2021/09/16 03:40:29;;;;;;;0.80;0.60;;;16.10;79.00;;;;;;5069287;28;20039;-77
2021/09/16 03:42:54;;;;;;;2.15;0.80;;;16.20;79.10;;;;;;5070947;28;20032;-78
2021/09/16 03:45:20;;;;;;;2.88;0.75;;;16.20;79.00;;;;;;5071097;28;20070;-78
2021/09/16 03:47:45;;;;;;;1.40;0.90;;;16.20;79.10;;;;;;5071045;28;20047;-78
2021/09/16 03:50:11;;;;;;;2.45;0.90;;;16.10;79.10;;;;;;5070652;28;20072;-77
2021/09/16 03:52:37;;;;;;;2.15;0.95;;;16.10;79.30;;;;;;5071399;28;20017;-77
2021/09/16 03:55:04;;;;;;;1.50;0.73;;;16.10;79.40;;;;;;5070931;28;20012;-77
2021/09/16 03:57:29;;;;;;;1.05;0.63;;;16.10;79.40;;;;;;5069271;28;20147;-77
2021/09/16 03:59:55;;;;;;;1.17;0.60;;;16.10;79.50;;;;;;5071299;28;20166;-77
2021/09/16 04:02:20;;;;;;;1.55;0.90;;;16.10;79.60;;;;;;5070374;28;20482;-77
2021/09/16 04:04:46;;;;;;;1.63;0.90;;;16.10;79.60;;;;;;5070558;28;20439;-77
2021/09/16 04:07:11;;;;;;;2.30;1.00;;;16.10;79.70;;;;;;5070804;28;20029;-77
2021/09/16 04:09:37;;;;;;;3.00;1.00;;;16.10;79.90;;;;;;5070442;28;20024;-77
2021/09/16 04:12:02;;;;;;;2.25;0.73;;;16.00;80.10;;;;;;5071239;28;20378;-77
2021/09/16 04:14:28;;;;;;;1.15;0.80;;;16.00;80.20;;;;;;5070925;28;20029;-77
2021/09/16 04:16:53;;;;;;;2.58;0.77;;;16.00;80.30;;;;;;5060580;28;20485;-77
2021/09/16 04:19:19;;;;;;;2.03;0.85;;;16.00;80.50;;;;;;5065996;28;20539;-77
2021/09/16 04:21:45;;;;;;;1.33;0.82;;;15.90;80.50;;;;;;5061262;28;20032;-78
2021/09/16 04:24:13;;;;;;;2.75;0.80;;;15.90;80.80;;;;;;5057281;28;20025;-77
2021/09/16 04:26:40;;;;;;;2.65;1.00;;;15.90;80.80;;;;;;5064723;28;20028;-79
2021/09/16 04:29:06;;;;;;;1.10;0.80;;;15.90;80.80;;;;;;5070440;28;20020;-77
2021/09/16 04:31:31;;;;;;;1.30;0.80;;;16.00;80.90;;;;;;5070126;28;20028;-77
2021/09/16 04:33:57;;;;;;;1.63;0.70;;;15.90;81.30;;;;;;5078399;28;20070;-78
2021/09/16 04:36:22;;;;;;;1.75;0.88;;;15.90;81.00;;;;;;5076274;28;20107;-78
2021/09/16 04:38:48;;;;;;;4.38;1.00;;;15.90;81.00;;;;;;5064514;28;20024;-77
2021/09/16 04:41:13;;;;;;;1.30;0.80;;;16.00;81.10;;;;;;5070698;28;20375;-77
2021/09/16 04:43:39;;;;;;;2.17;1.00;;;16.00;81.00;;;;;;5069488;28;20025;-78
2021/09/16 04:46:05;;;;;;;0.98;0.65;;;16.00;81.00;;;;;;5069685;28;20032;-78
2021/09/16 04:48:30;;;;;;;2.50;0.98;;;16.10;81.00;;;;;;5067899;28;20135;-79
2021/09/16 04:50:56;;;;;;;1.90;0.93;;;16.00;81.00;;;;;;5060674;28;20364;-79
2021/09/16 04:53:21;;;;;;;0.93;0.70;;;16.10;81.00;;;;;;5068128;28;20021;-79
2021/09/16 04:55:47;;;;;;;1.67;0.88;;;16.10;80.90;;;;;;5068393;28;20500;-78
2021/09/16 04:58:12;;;;;;;1.30;0.80;;;16.10;80.70;;;;;;5065494;28;20501;-78
2021/09/16 05:00:38;;;;;;;0.98;0.60;;;16.10;80.90;;;;;;5067701;28;20028;-79
2021/09/16 05:03:03;;;;;;;1.88;0.80;;;16.10;80.80;;;;;;5061753;28;20033;-79
2021/09/16 05:05:29;;;;;;;1.92;0.85;;;16.10;80.80;;;;;;5065065;28;20058;-79
2021/09/16 05:07:54;;;;;;;1.33;0.80;;;16.10;80.80;;;;;;5065143;28;20435;-80
2021/09/16 05:10:20;;;;;;;1.55;0.70;;;16.20;80.80;;;;;;5069641;28;20024;-79
2021/09/16 05:12:45;;;;;;;1.25;0.80;;;16.20;80.80;;;;;;5070335;28;20028;-80
2021/09/16 05:15:11;;;;;;;1.30;0.80;;;16.20;80.70;;;;;;5062253;28;20028;-78
2021/09/16 05:17:36;;;;;;;2.28;0.80;;;16.20;80.80;;;;;;5088270;28;20444;-79
2021/09/16 05:20:02;;;;;;;2.17;0.80;;;16.20;80.80;;;;;;5075940;28;20085;-78
2021/09/16 05:22:28;;;;;;;1.55;0.63;;;16.20;80.80;;;;;;5073534;28;20032;-79
2021/09/16 05:24:54;;;;;;;1.15;0.50;;;16.20;80.70;;;;;;5073540;28;20047;-78
2021/09/16 05:27:19;;;;;;;2.45;0.80;;;16.20;80.60;;;;;;5073541;28;20036;-78
2021/09/16 05:29:52;;;;;;;2.50;0.68;;;16.20;80.70;;;;;;5071732;28;20021;-77
2021/09/16 05:32:17;;;;;;;3.42;1.00;;;16.10;80.60;;;;;;5069970;28;20017;-79
2021/09/16 05:34:43;;;;;;;2.40;0.80;;;16.20;80.70;;;;;;5075173;28;20517;-80
2021/09/16 05:37:09;;;;;;;1.80;0.70;;;16.20;80.80;;;;;;5069343;28;20100;-80
2021/09/16 05:39:34;;;;;;;2.17;0.80;;;16.20;80.70;;;;;;5072489;28;20562;-77
2021/09/16 05:42:00;;;;;;;1.75;0.65;;;16.20;80.70;;;;;;5071595;28;20039;-83
2021/09/16 05:44:25;;;;;;;1.05;0.60;;;16.20;80.70;;;;;;5087283;28;20021;-80
2021/09/16 05:46:51;;;;;;;0.95;0.60;;;16.20;80.60;;;;;;5069010;28;20137;-78
2021/09/16 05:49:17;;;;;;;2.25;0.85;;;16.20;80.60;;;;;;5075875;28;20028;-79
2021/09/16 05:51:42;;;;;;;1.50;0.60;;;16.20;80.60;;;;;;5073232;28;20468;-79
2021/09/16 05:54:09;;;;;;;0.98;0.60;;;16.20;80.60;;;;;;5071016;28;20032;-78
2021/09/16 05:56:35;;;;;;;1.10;0.70;;;16.20;80.70;;;;;;5070814;28;20030;-78
2021/09/16 05:59:01;;;;;;;2.47;0.85;;;16.20;80.60;;;;;;5072600;28;20025;-79
2021/09/16 06:01:26;;;;;;;0.75;0.60;;;16.20;80.60;;;;;;5067620;28;20079;-79
2021/09/16 06:03:52;;;;;;;1.02;0.63;;;16.20;80.70;;;;;;5068075;28;20025;-78
2021/09/16 06:06:18;;;;;;;0.82;0.57;;;16.20;80.80;;;;;;5072173;28;20039;-79
2021/09/16 06:08:43;;;;;;;1.50;0.70;;;16.20;80.70;;;;;;5069256;28;20046;-79
2021/09/16 06:11:09;;;;;;;0.95;0.50;;;16.20;80.60;;;;;;5070201;28;20051;-79
2021/09/16 06:13:35;;;;;;;1.17;0.65;;;16.30;80.50;;;;;;5071461;28;20031;-80
2021/09/16 06:16:00;;;;;;;0.73;0.60;;;16.30;80.60;;;;;;5069547;28;20442;-79
2021/09/16 06:18:26;;;;;;;2.15;0.70;;;16.30;80.60;;;;;;5069789;28;20052;-79
2021/09/16 06:20:51;;;;;;;2.28;0.90;;;16.30;80.50;;;;;;5065111;28;20622;-79
2021/09/16 06:23:17;;;;;;;2.10;1.20;;;16.30;80.40;;;;;;5071305;28;20032;-79
2021/09/16 06:25:43;;;;;;;1.27;0.57;;;16.30;80.40;;;;;;5069929;28;20051;-79
2021/09/16 06:28:08;;;;;;;2.90;0.75;;;16.30;80.30;;;;;;5065799;28;20028;-79
2021/09/16 06:30:34;;;;;;;1.92;1.00;;;16.30;80.20;;;;;;5070654;28;20529;-79
2021/09/16 06:33:00;;;;;;;1.95;0.65;;;16.30;80.30;;;;;;5071112;28;20043;-79
2021/09/16 06:35:25;;;;;;;1.95;0.68;;;16.30;80.20;;;;;;5071350;28;20021;-79
2021/09/16 06:37:51;;;;;;;1.58;0.65;;;16.30;80.30;;;;;;5070403;28;20107;-79
2021/09/16 06:40:16;;;;;;;3.30;0.80;;;16.40;80.30;;;;;;5071222;28;20036;-79
2021/09/16 06:42:42;;;;;;;1.35;0.60;;;16.40;80.20;;;;;;5071855;28;20035;-79
2021/09/16 06:45:08;;;;;;;1.08;0.63;;;16.40;80.10;;;;;;5070426;28;20016;-79
2021/09/16 06:47:34;;;;;;;1.25;0.70;;;16.40;80.10;;;;;;5070599;28;20062;-79
2021/09/16 06:49:59;;;;;;;1.98;0.80;;;16.40;80.00;;;;;;5071119;28;20467;-79
2021/09/16 06:52:25;;;;;;;1.35;0.80;;;16.50;80.10;;;;;;5068851;28;20045;-79
2021/09/16 06:54:51;;;;;;;1.17;0.60;;;16.60;80.00;;;;;;5071052;28;20490;-79
2021/09/16 06:57:19;;;;;;;1.52;0.68;;;16.80;79.80;;;;;;5070065;28;20028;-79
2021/09/16 06:59:45;;;;;;;0.77;0.50;;;16.90;79.50;;;;;;5070603;28;20033;-79
2021/09/16 07:02:11;;;;;;;1.75;0.65;;;17.00;79.30;;;;;;5065050;28;20036;-78
2021/09/16 07:04:37;;;;;;;2.92;1.17;;;17.10;79.20;;;;;;5066942;28;20036;-79
2021/09/16 07:07:06;;;;;;;1.55;0.68;;;17.20;79.10;;;;;;5070641;28;20028;-79
2021/09/16 07:09:33;;;;;;;1.20;0.82;;;17.30;78.90;;;;;;5070460;28;20032;-79
2021/09/16 07:11:59;;;;;;;1.67;0.70;;;17.50;78.70;;;;;;5071108;28;20032;-79
2021/09/16 07:14:26;;;;;;;1.83;0.70;;;17.60;78.40;;;;;;5068891;28;20131;-77
2021/09/16 07:16:53;;;;;;;1.25;0.88;;;17.70;78.20;;;;;;5070301;28;20449;-78
2021/09/16 07:19:18;;;;;;;1.30;0.70;;;17.80;77.90;;;;;;5069145;28;21111;-77
2021/09/16 07:21:44;;;;;;;3.13;0.90;;;17.90;77.70;;;;;;5065911;28;20029;-78
2021/09/16 07:24:10;;;;;;;1.58;0.80;;;18.00;77.60;;;;;;5070040;28;20028;-78
2021/09/16 07:26:36;;;;;;;4.07;1.20;;;18.10;77.50;;;;;;5070111;28;20020;-77
2021/09/16 07:29:02;;;;;;;2.38;0.98;;;18.20;77.20;;;;;;5070389;28;20074;-78
2021/09/16 07:31:29;;;;;;;1.55;0.77;;;18.30;77.00;;;;;;5069779;28;20020;-78
2021/09/16 07:33:55;;;;;;;1.15;0.63;;;18.30;76.60;;;;;;5069889;28;20040;-78
2021/09/16 07:36:21;;;;;;;1.45;0.85;;;18.30;76.50;;;;;;5070067;28;20081;-79
2021/09/16 07:38:47;;;;;;;2.70;0.85;;;18.30;76.60;;;;;;5068468;28;20024;-79
2021/09/16 07:41:13;;;;;;;2.25;1.00;;;18.50;76.80;;;;;;5069588;28;20047;-78
2021/09/16 07:43:39;;;;;;;2.00;0.85;;;18.60;76.60;;;;;;5069173;28;20016;-78
2021/09/16 07:46:06;;;;;;;1.55;0.80;;;18.80;76.30;;;;;;5069549;28;20031;-78
2021/09/16 07:48:31;;;;;;;1.65;0.75;;;18.90;75.70;;;;;;5069606;28;20096;-79
2021/09/16 07:50:57;;;;;;;1.75;0.80;;;19.00;75.40;;;;;;5068648;28;20559;-78
2021/09/16 07:53:22;;;;;;;2.47;1.23;;;19.10;75.10;;;;;;5069637;28;20032;-78
2021/09/16 07:55:48;;;;;;;2.22;0.70;;;19.20;75.00;;;;;;5066811;28;20017;-78
2021/09/16 07:58:15;;;;;;;3.13;1.00;;;19.30;74.70;;;;;;5070080;28;20024;-78
2021/09/16 08:00:40;;;;;;;3.47;1.00;;;19.30;74.40;;;;;;5069132;28;20032;-78
2021/09/16 08:03:06;;;;;;;2.30;0.90;;;19.30;74.20;;;;;;5069594;28;20078;-80
2021/09/16 08:05:31;;;;;;;1.73;0.93;;;19.30;74.10;;;;;;5069815;28;20028;-81
2021/09/16 08:07:57;;;;;;;2.40;0.80;;;19.40;74.20;;;;;;5070466;28;20036;-80
2021/09/16 08:10:23;;;;;;;2.03;1.00;;;19.40;74.10;;;;;;5070769;28;20365;-81
2021/09/16 08:12:49;;;;;;;1.40;0.90;;;19.40;73.80;;;;;;5066899;28;20028;-80
2021/09/16 08:15:15;;;;;;;2.17;0.90;;;19.30;73.90;;;;;;5068576;28;20024;-80
2021/09/16 08:17:41;;;;;;;1.38;0.70;;;19.20;74.10;;;;;;5069712;28;20028;-80
2021/09/16 08:20:07;;;;;;;1.42;0.70;;;19.20;74.40;;;;;;5067776;28;20042;-78
2021/09/16 08:22:34;;;;;;;1.50;0.60;;;19.10;74.60;;;;;;5069960;28;20127;-79
2021/09/16 08:25:00;;;;;;;2.00;0.82;;;19.00;74.70;;;;;;5066830;28;20031;-80
2021/09/16 08:27:25;;;;;;;2.05;0.90;;;19.00;74.80;;;;;;5061746;28;20029;-79
2021/09/16 08:29:51;;;;;;;2.72;0.85;;;19.00;74.80;;;;;;5067282;28;20067;-79
2021/09/16 08:32:18;;;;;;;2.35;0.80;;;19.00;74.70;;;;;;5068218;28;20060;-79
2021/09/16 08:34:43;;;;;;;2.10;0.80;;;19.00;74.60;;;;;;5065895;28;20028;-78
2021/09/16 08:37:11;;;;;;;2.67;0.82;;;19.00;74.60;;;;;;5067641;28;20025;-82
2021/09/16 08:39:37;;;;;;;1.63;0.80;;;19.10;74.40;;;;;;5066389;28;20475;-78
2021/09/16 08:42:02;;;;;;;2.42;1.02;;;19.10;74.10;;;;;;5069489;28;20040;-79
2021/09/16 08:44:28;;;;;;;0.63;0.60;;;19.10;74.00;;;;;;5069492;28;20123;-78
2021/09/16 08:46:54;;;;;;;2.35;0.70;;;19.20;74.20;;;;;;5069002;28;20037;-77
2021/09/16 08:49:19;;;;;;;1.60;0.80;;;19.20;74.00;;;;;;5066492;28;20029;-77
2021/09/16 08:51:45;;;;;;;2.88;1.00;;;19.20;73.70;;;;;;5072228;28;20036;-78
2021/09/16 08:54:11;;;;;;;1.52;0.90;;;19.20;73.70;;;;;;5073088;28;20024;-78
2021/09/16 08:56:43;;;;;;;1.55;0.70;;;19.30;73.80;;;;;;5065694;28;20036;-78
2021/09/16 08:59:09;;;;;;;1.48;0.70;;;19.40;73.60;;;;;;5071028;28;20028;-77
2021/09/16 09:01:35;;;;;;;2.33;0.70;;;19.60;73.30;;;;;;5072658;28;20036;-78
2021/09/16 09:04:01;;;;;;;1.60;0.80;;;19.70;72.60;;;;;;5072734;28;20016;-78
2021/09/16 09:06:32;;;;;;;3.65;1.05;;;19.80;72.20;;;;;;5071983;28;20103;-78
2021/09/16 09:09:19;;;;;;;2.63;0.82;;;19.90;72.00;;;;;;5073152;28;20074;-80
2021/09/16 09:12:01;;;;;;;2.78;0.75;;;20.00;72.00;;;;;;5071451;28;20025;-77
2021/09/16 09:14:41;;;;;;;3.20;1.23;;;20.10;71.70;;;;;;5068822;28;20025;-79
2021/09/16 09:17:20;;;;;;;2.30;0.88;;;20.10;70.80;;;;;;5071231;28;20021;-79
2021/09/16 09:19:47;;;;;;;2.40;0.90;;;20.10;71.10;;;;;;5071542;28;20039;-78
2021/09/16 09:22:13;;;;;;;3.35;0.90;;;20.10;71.10;;;;;;5071539;28;20040;-78
2021/09/16 09:24:43;;;;;;;2.35;0.90;;;20.10;71.20;;;;;;5071871;28;20391;-78
2021/09/16 09:27:33;;;;;;;1.98;0.82;;;20.10;70.90;;;;;;5069703;28;20016;-78
2021/09/16 09:30:09;;;;;;;1.10;0.70;;;20.00;70.70;;;;;;5069063;28;20035;-79
2021/09/16 09:32:56;;;;;;;1.60;0.90;;;20.00;70.80;;;;;;5064408;28;20024;-78
2021/09/16 09:35:37;;;;;;;2.55;0.80;;;20.00;70.60;;;;;;5063253;28;20033;-78
2021/09/16 09:38:24;;;;;;;1.27;0.73;;;20.00;70.40;;;;;;5069567;28;20040;-79
2021/09/16 09:40:53;;;;;;;1.17;0.65;;;20.00;70.50;;;;;;5062766;28;20052;-79
2021/09/16 09:43:37;;;;;;;1.65;0.75;;;20.10;70.40;;;;;;5070777;28;20071;-80
2021/09/16 09:46:13;;;;;;;1.23;0.70;;;20.20;70.10;;;;;;5070784;28;20032;-78
2021/09/16 09:48:45;;;;;;;1.85;0.77;;;20.20;69.90;;;;;;5070334;28;20089;-79
2021/09/16 09:51:13;;;;;;;1.33;0.70;;;20.30;69.80;;;;;;5070555;28;20025;-80
2021/09/16 09:53:45;;;;;;;2.58;1.08;;;20.40;69.60;;;;;;5069878;28;20150;-79
2021/09/16 09:56:16;;;;;;;2.70;1.00;;;20.40;69.10;;;;;;5064007;28;20027;-80
2021/09/16 09:58:42;;;;;;;1.90;0.80;;;20.40;68.90;;;;;;5065425;28;20483;-81
2021/09/16 10:01:36;;;;;;;1.38;0.80;;;20.40;68.80;;;;;;5070314;28;20036;-80
2021/09/16 10:04:27;;;;;;;2.17;0.70;;;20.50;68.80;;;;;;5069387;28;20110;-79
2021/09/16 10:06:59;;;;;;;1.40;0.70;;;20.40;68.40;;;;;;5067796;28;20033;-79
2021/09/16 10:09:25;;;;;;;2.05;0.73;;;20.40;68.40;;;;;;5071888;28;20059;-80
2021/09/16 10:11:52;;;;;;;1.80;0.70;;;20.40;68.20;;;;;;5072942;28;20472;-81
2021/09/16 10:14:19;;;;;;;2.17;0.80;;;20.50;68.10;;;;;;5069323;28;20530;-79
2021/09/16 10:16:46;;;;;;;2.30;0.82;;;20.60;67.70;;;;;;5072248;28;20518;-78
2021/09/16 10:19:13;;;;;;;1.70;0.70;;;20.70;67.30;;;;;;5069563;28;20020;-78
2021/09/16 10:21:39;;;;;;;2.20;1.00;;;20.80;67.20;;;;;;5066392;28;20514;-78
2021/09/16 10:24:06;;;;;;;2.05;0.80;;;20.80;66.60;;;;;;5071703;28;20146;-78
2021/09/16 10:26:38;;;;;;;0.90;0.77;;;20.80;66.40;;;;;;5071988;28;20115;-78
2021/09/16 10:29:06;;;;;;;1.20;0.70;;;20.80;66.20;;;;;;5086997;28;20029;-79
2021/09/16 10:31:32;;;;;;;1.55;0.90;;;20.80;65.90;;;;;;5072930;28;20043;-78
2021/09/16 10:33:58;;;;;;;1.45;0.80;;;20.90;65.50;;;;;;5073068;28;20402;-79
2021/09/16 10:36:24;;;;;;;1.63;0.65;;;21.00;65.60;;;;;;5072303;28;20028;-78
2021/09/16 10:38:52;;;;;;;2.67;0.85;;;21.20;65.50;;;;;;5072862;28;20024;-79
2021/09/16 10:41:22;;;;;;;2.80;0.95;;;21.30;64.90;;;;;;5070841;28;20024;-79
2021/09/16 10:43:59;;;;;;;2.13;1.00;;;21.40;64.30;;;;;;5072563;28;20027;-79
2021/09/16 10:46:43;;;;;;;1.27;0.80;;;21.40;63.70;;;;;;5061341;28;20031;-78
2021/09/16 10:49:24;;;;;;;1.45;0.73;;;21.50;63.50;;;;;;5072379;28;20495;-79
2021/09/16 10:51:58;;;;;;;2.00;0.85;;;21.60;63.30;;;;;;5068688;28;20062;-81
2021/09/16 10:54:24;;;;;;;1.50;1.00;;;21.70;62.80;;;;;;5068381;28;20398;-82
2021/09/16 10:56:56;;;;;;;1.92;1.02;;;21.80;62.40;;;;;;5070602;28;20024;-80
2021/09/16 10:59:25;;;;;;;2.03;0.90;;;21.70;61.80;;;;;;5077634;28;20031;-82
2021/09/16 11:01:51;;;;;;;0.88;0.70;;;21.70;62.00;;;;;;5074944;28;20068;-81
2021/09/16 11:04:17;;;;;;;1.48;0.85;;;21.70;62.30;;;;;;5068612;28;20471;-81
2021/09/16 11:06:44;;;;;;;3.00;0.95;;;21.70;62.10;;;;;;5071424;28;20379;-79
2021/09/16 11:09:12;;;;;;;1.25;0.90;;;21.80;62.00;;;;;;5071292;28;20024;-79
2021/09/16 11:12:02;;;;;;;1.55;0.82;;;21.90;61.70;;;;;;5069243;28;20021;-80
2021/09/16 11:14:34;;;;;;;1.38;0.80;;;21.90;61.40;;;;;;5065447;28;20375;-80
2021/09/16 11:17:01;;;;;;;1.42;0.75;;;21.90;61.20;;;;;;5054773;28;20032;-79
2021/09/16 11:19:27;;;;;;;0.88;0.70;;;21.90;61.00;;;;;;5071861;28;20031;-80
2021/09/16 11:22:10;;;;;;;1.33;0.73;;;21.80;60.90;;;;;;5062720;28;20041;-79
2021/09/16 11:24:42;;;;;;;0.88;0.70;;;21.70;60.90;;;;;;5081446;28;20020;-79
2021/09/16 11:27:11;;;;;;;1.40;0.90;;;21.70;61.20;;;;;;5074618;28;20052;-80
2021/09/16 11:29:46;;;;;;;1.52;0.80;;;21.70;61.30;;;;;;5076980;28;20067;-80
2021/09/16 11:32:13;;;;;;;1.55;0.80;;;21.50;61.20;;;;;;5076190;28;20035;-80
2021/09/16 11:34:56;;;;;;;2.45;0.80;;;21.40;61.60;;;;;;5070765;28;20082;-80
2021/09/16 11:37:30;;;;;;;1.67;0.90;;;21.50;62.00;;;;;;5070262;28;20025;-80
2021/09/16 11:40:02;;;;;;;1.38;0.82;;;21.50;61.50;;;;;;5077688;28;20119;-79
2021/09/16 11:42:30;;;;;;;1.52;0.90;;;21.60;61.50;;;;;;5064280;28;20081;-79
2021/09/16 11:44:55;;;;;;;0.77;0.70;;;21.80;61.40;;;;;;5075705;28;20050;-80
2021/09/16 11:47:21;;;;;;;1.83;0.63;;;22.00;61.20;;;;;;5078295;28;20494;-81
2021/09/16 11:49:46;;;;;;;1.27;0.80;;;22.20;60.70;;;;;;5073095;28;20024;-80
2021/09/16 11:52:18;;;;;;;1.23;0.80;;;22.30;60.10;;;;;;5072815;28;20031;-79
2021/09/16 11:55:04;;;;;;;1.60;0.77;;;22.20;59.80;;;;;;5073973;28;20375;-83
2021/09/16 11:57:30;;;;;;;1.42;0.70;;;22.00;59.70;;;;;;5073624;28;20115;-80
2021/09/16 11:59:56;;;;;;;0.63;0.60;;;22.00;60.20;;;;;;5073151;28;20047;-80
2021/09/16 12:02:22;;;;;;;1.23;0.70;;;22.00;60.30;;;;;;5075873;28;20041;-80
2021/09/16 12:04:48;;;;;;;2.42;0.80;;;22.20;60.30;;;;;;5081766;28;20020;-80
2021/09/16 12:07:17;;;;;;;1.08;0.70;;;22.50;60.10;;;;;;5070400;28;20170;-80
2021/09/16 12:09:43;;;;;;;0.75;0.75;;;22.60;59.70;;;;;;5069120;28;20024;-81
2021/09/16 12:12:09;;;;;;;1.70;0.63;;;22.60;59.60;;;;;;5067896;28;20110;-79
2021/09/16 12:14:38;;;;;;;1.10;0.60;;;22.60;59.40;;;;;;5073002;28;20138;-80
2021/09/16 12:17:04;;;;;;;1.15;0.68;;;22.50;59.50;;;;;;5063965;28;20062;-80
2021/09/16 12:19:30;;;;;;;1.20;0.90;;;22.40;59.50;;;;;;5072504;28;20020;-81
2021/09/16 12:21:56;;;;;;;1.10;0.90;;;22.20;59.40;;;;;;5075325;28;20044;-80
2021/09/16 12:24:29;;;;;;;1.52;0.70;;;22.20;59.50;;;;;;5076486;28;20025;-80
2021/09/16 12:26:56;;;;;;;1.23;0.63;;;22.20;59.40;;;;;;5077485;28;20034;-79
2021/09/16 12:29:23;;;;;;;2.17;0.70;;;22.40;59.50;;;;;;5077162;28;20024;-79
2021/09/16 12:32:16;;;;;;;0.98;0.85;;;22.50;59.30;;;;;;5072115;28;20028;-81
2021/09/16 12:34:43;;;;;;;2.08;0.70;;;22.50;59.20;;;;;;5068013;28;20036;-80
2021/09/16 12:37:11;;;;;;;0.90;0.80;;;22.50;58.90;;;;;;5069228;28;20024;-79
2021/09/16 12:39:54;;;;;;;0.95;0.75;;;22.60;58.70;;;;;;5091027;28;20024;-79
2021/09/16 12:42:36;;;;;;;1.00;0.70;;;22.70;58.10;;;;;;5067751;28;20029;-80
2021/09/16 12:45:13;;;;;;;0.60;0.60;;;22.80;58.00;;;;;;5073449;28;20033;-79
2021/09/16 12:47:49;;;;;;;1.42;0.80;;;22.70;58.00;;;;;;5066898;28;20487;-79
2021/09/16 12:50:16;;;;;;;0.70;0.70;;;22.60;57.90;;;;;;5069122;28;20425;-81